createdAt,value
2018-05-14T00:00:22.712Z,131.00
2018-05-14T00:02:15.736Z,129.00
2018-05-14T00:03:15.370Z,126.80
2018-05-14T00:05:09.148Z,137.40
2018-05-14T00:06:08.529Z,140.20
2018-05-14T00:08:02.440Z,135.60
2018-05-14T00:09:01.615Z,132.00
2018-05-14T00:10:55.824Z,129.60
2018-05-14T00:11:55.267Z,134.10
2018-05-14T00:13:49.212Z,142.50
2018-05-14T00:14:48.665Z,144.10
2018-05-14T00:16:43.650Z,140.50
2018-05-14T00:17:43.397Z,147.70
2018-05-14T00:19:35.997Z,146.40
2018-05-14T00:20:35.373Z,152.70
2018-05-14T00:22:30.208Z,149.20
2018-05-14T00:23:28.375Z,142.00
2018-05-14T00:25:22.221Z,145.90
2018-05-14T00:26:21.672Z,150.90
2018-05-14T00:28:15.550Z,154.00
2018-05-14T00:29:15.484Z,152.70
2018-05-14T00:31:09.852Z,161.70
2018-05-14T00:32:08.835Z,154.50
2018-05-14T00:34:02.248Z,153.60
2018-05-14T00:35:01.851Z,159.10
2018-05-14T00:36:55.606Z,172.50
2018-05-14T00:37:55.148Z,168.00
2018-05-14T00:39:49.483Z,175.30
2018-05-14T00:40:48.547Z,182.50
2018-05-14T00:42:42.873Z,181.70
2018-05-14T00:43:42.266Z,181.80
2018-05-14T00:45:35.709Z,171.10
2018-05-14T00:46:36.196Z,172.90
2018-05-14T00:48:29.629Z,180.20
2018-05-14T00:49:29.241Z,185.60
2018-05-14T00:51:23.021Z,193.20
2018-05-14T00:52:22.623Z,185.00
2018-05-14T00:54:15.969Z,181.30
2018-05-14T00:55:16.475Z,200.30
2018-05-14T00:57:09.391Z,207.30
2018-05-14T00:58:09.164Z,202.60
2018-05-14T01:00:03.671Z,202.90
2018-05-14T01:01:04.128Z,204.20
2018-05-14T01:02:56.088Z,213.90
2018-05-14T01:03:57.519Z,210.30
2018-05-14T01:05:50.042Z,205.50
2018-05-14T01:06:49.579Z,224.00
2018-05-14T01:08:42.731Z,232.60
2018-05-14T01:09:42.294Z,245.70
2018-05-14T01:11:37.647Z,245.60
2018-05-14T01:12:35.666Z,245.80
2018-05-14T01:14:29.386Z,247.60
2018-05-14T01:15:29.043Z,235.20
2018-05-14T01:17:22.927Z,274.60
2018-05-14T01:18:22.461Z,271.00
2018-05-14T01:20:16.128Z,274.00
2018-05-14T01:21:15.792Z,269.00
2018-05-14T01:23:09.558Z,275.60
2018-05-14T01:24:09.186Z,279.00
2018-05-14T01:26:02.862Z,273.80
2018-05-14T01:27:02.879Z,263.80
2018-05-14T01:28:56.250Z,256.50
2018-05-14T01:29:55.942Z,267.10
2018-05-14T01:31:49.707Z,258.80
2018-05-14T01:32:49.178Z,262.30
2018-05-14T01:34:42.988Z,279.40
2018-05-14T01:35:42.643Z,270.00
2018-05-14T01:37:36.387Z,270.50
2018-05-14T01:38:36.527Z,276.70
2018-05-14T01:40:31.319Z,282.10
2018-05-14T01:41:29.905Z,272.70
2018-05-14T01:43:23.614Z,275.10
2018-05-14T01:44:24.133Z,284.90
2018-05-14T01:46:17.111Z,273.00
2018-05-14T01:47:16.629Z,285.30
2018-05-14T01:49:11.047Z,287.80
2018-05-14T01:50:10.381Z,281.20
2018-05-14T01:52:03.838Z,287.50
2018-05-14T01:53:03.407Z,301.70
2018-05-14T01:54:57.401Z,293.40
2018-05-14T01:55:56.717Z,289.00
2018-05-14T01:57:50.901Z,305.60
2018-05-14T01:58:50.971Z,295.90
2018-05-14T02:00:44.416Z,288.20
2018-05-14T02:01:43.879Z,310.30
2018-05-14T02:03:37.219Z,282.00
2018-05-14T02:04:36.763Z,297.30
2018-05-14T02:06:31.203Z,293.10
2018-05-14T02:07:29.774Z,301.80
2018-05-14T02:09:24.501Z,304.60
2018-05-14T02:10:23.175Z,314.30
2018-05-14T02:12:17.003Z,295.30
2018-05-14T02:13:17.158Z,306.40
2018-05-14T02:15:10.393Z,291.30
2018-05-14T02:16:09.871Z,295.60
2018-05-14T02:18:04.179Z,316.10
2018-05-14T02:19:02.908Z,313.70
2018-05-14T02:20:56.725Z,316.00
2018-05-14T02:21:57.159Z,298.90
2018-05-14T02:23:50.036Z,297.90
2018-05-14T02:24:49.599Z,297.30
2018-05-14T02:26:43.024Z,296.10
2018-05-14T02:27:42.616Z,293.60
2018-05-14T02:29:37.494Z,305.20
2018-05-14T02:30:35.973Z,315.70
2018-05-14T02:32:30.854Z,316.10
2018-05-14T02:33:29.387Z,317.80
2018-05-14T02:35:23.137Z,318.30
2018-05-14T02:36:22.792Z,330.60
2018-05-14T02:38:16.519Z,336.40
2018-05-14T02:39:16.073Z,349.20
2018-05-14T02:41:09.480Z,332.50
2018-05-14T02:42:09.156Z,345.10
2018-05-14T02:44:03.361Z,321.10
2018-05-14T02:45:02.823Z,302.50
2018-05-14T02:46:56.173Z,322.70
2018-05-14T02:47:55.721Z,324.70
2018-05-14T02:49:49.587Z,329.00
2018-05-14T02:50:49.099Z,312.90
2018-05-14T02:52:43.901Z,317.10
2018-05-14T02:53:43.888Z,310.70
2018-05-14T02:55:36.326Z,295.90
2018-05-14T02:56:35.923Z,318.20
2018-05-14T02:58:29.703Z,304.10
2018-05-14T02:59:29.653Z,296.70
2018-05-14T03:01:23.029Z,318.90
2018-05-14T03:02:23.517Z,299.60
2018-05-14T03:04:16.904Z,312.90
2018-05-14T03:05:17.835Z,316.70
2018-05-14T03:07:09.788Z,304.00
2018-05-14T03:08:09.749Z,324.00
2018-05-14T03:10:03.276Z,347.90
2018-05-14T03:11:02.458Z,339.10
2018-05-14T03:12:56.651Z,311.30
2018-05-14T03:13:57.066Z,314.60
2018-05-14T03:15:49.836Z,341.60
2018-05-14T03:16:48.967Z,324.80
2018-05-14T03:18:42.454Z,320.50
2018-05-14T03:19:44.984Z,328.00
2018-05-14T03:21:36.231Z,322.30
2018-05-14T03:22:35.465Z,325.50
2018-05-14T03:24:29.678Z,299.60
2018-05-14T03:25:28.764Z,291.80
2018-05-14T03:27:23.045Z,294.40
2018-05-14T03:28:22.539Z,303.30
2018-05-14T03:30:15.891Z,307.10
2018-05-14T03:31:15.907Z,306.10
2018-05-14T03:33:10.670Z,304.90
2018-05-14T03:34:08.940Z,305.50
2018-05-14T03:36:03.569Z,278.60
2018-05-14T03:37:02.277Z,285.00
2018-05-14T03:38:56.609Z,296.40
2018-05-14T03:39:56.030Z,281.60
2018-05-14T03:41:50.326Z,275.80
2018-05-14T03:42:49.033Z,267.90
2018-05-14T03:44:44.180Z,267.80
2018-05-14T03:45:42.453Z,258.70
2018-05-14T03:47:36.133Z,267.40
2018-05-14T03:48:36.111Z,274.40
2018-05-14T03:50:30.067Z,265.40
2018-05-14T03:51:29.467Z,266.80
2018-05-14T03:53:22.884Z,271.80
2018-05-14T03:54:22.875Z,278.80
2018-05-14T03:56:16.265Z,269.70
2018-05-14T03:57:16.698Z,274.80
2018-05-14T03:59:10.097Z,249.30
2018-05-14T04:00:09.200Z,242.50
2018-05-14T04:02:02.970Z,239.60
2018-05-14T04:03:02.947Z,240.80
2018-05-14T04:04:56.269Z,228.40
2018-05-14T04:05:56.056Z,219.80
2018-05-14T04:07:50.380Z,227.40
2018-05-14T04:08:50.200Z,225.70
2018-05-14T04:10:44.172Z,229.60
2018-05-14T04:11:43.618Z,241.80
2018-05-14T04:13:38.501Z,227.10
2018-05-14T04:14:37.197Z,226.00
2018-05-14T04:16:31.497Z,227.80
2018-05-14T04:17:30.878Z,238.10
2018-05-14T04:19:24.255Z,210.80
2018-05-14T04:20:23.268Z,219.90
2018-05-14T04:22:17.153Z,218.80
2018-05-14T04:23:16.717Z,220.80
2018-05-14T04:25:10.485Z,217.00
2018-05-14T04:26:10.996Z,208.20
2018-05-14T04:28:04.410Z,211.00
2018-05-14T04:29:03.616Z,209.90
2018-05-14T04:30:57.816Z,211.70
2018-05-14T04:31:57.738Z,202.10
2018-05-14T04:33:50.611Z,203.90
2018-05-14T04:34:51.143Z,199.40
2018-05-14T04:36:44.941Z,196.40
2018-05-14T04:37:44.074Z,203.10
2018-05-14T04:39:37.002Z,195.60
2018-05-14T04:40:36.896Z,185.20
2018-05-14T04:42:30.112Z,199.10
2018-05-14T04:43:30.015Z,193.90
2018-05-14T04:45:23.429Z,193.50
2018-05-14T04:46:24.452Z,186.80
2018-05-14T04:48:17.438Z,177.10
2018-05-14T04:49:16.847Z,172.40
2018-05-14T04:51:10.253Z,174.60
2018-05-14T04:52:11.714Z,174.60
2018-05-14T04:54:04.136Z,182.90
2018-05-14T04:55:04.101Z,180.10
2018-05-14T04:56:56.895Z,170.60
2018-05-14T04:57:56.946Z,172.20
2018-05-14T04:59:50.847Z,168.80
2018-05-14T05:00:50.014Z,164.90
2018-05-14T05:02:43.815Z,154.40
2018-05-14T05:03:43.651Z,147.20
2018-05-14T05:05:37.072Z,152.40
2018-05-14T05:06:36.961Z,146.90
2018-05-14T05:08:30.453Z,145.00
2018-05-14T05:09:30.321Z,140.10
2018-05-14T05:11:23.698Z,129.90
2018-05-14T05:12:23.890Z,124.40
2018-05-14T05:14:17.213Z,128.80
2018-05-14T05:15:17.173Z,127.50
2018-05-14T05:17:10.554Z,127.30
2018-05-14T05:18:10.523Z,124.90
2018-05-14T05:20:04.485Z,126.60
2018-05-14T05:21:04.370Z,134.50
2018-05-14T05:22:58.034Z,125.30
2018-05-14T05:23:59.019Z,120.70
2018-05-14T05:25:50.863Z,115.80
2018-05-14T05:26:51.327Z,123.70
2018-05-14T05:28:44.654Z,118.50
2018-05-14T05:29:43.802Z,114.90
2018-05-14T05:31:37.548Z,128.10
2018-05-14T05:32:38.069Z,115.10
2018-05-14T05:34:31.474Z,114.70
2018-05-14T05:35:30.869Z,114.80
2018-05-14T05:37:24.861Z,124.30
2018-05-14T05:38:25.299Z,119.60
2018-05-14T05:40:17.688Z,119.10
2018-05-14T05:41:17.512Z,124.20
2018-05-14T05:43:11.038Z,120.10
2018-05-14T05:44:11.008Z,116.30
2018-05-14T05:46:04.393Z,130.00
2018-05-14T05:47:04.311Z,128.80
2018-05-14T05:48:57.679Z,130.60
2018-05-14T05:49:57.792Z,123.50
2018-05-14T05:51:54.193Z,122.80
2018-05-14T05:52:53.312Z,117.70
2018-05-14T05:54:47.113Z,119.40
2018-05-14T05:55:46.091Z,125.70
2018-05-14T05:57:39.141Z,124.30
2018-05-14T05:58:38.943Z,127.90
2018-05-14T06:00:32.768Z,128.40
2018-05-14T06:01:32.694Z,124.00
2018-05-14T06:03:26.059Z,131.90
2018-05-14T06:04:26.109Z,140.10
2018-05-14T06:06:20.506Z,136.10
2018-05-14T06:07:20.442Z,132.00
2018-05-14T06:09:13.945Z,123.50
2018-05-14T06:10:13.816Z,123.20
2018-05-14T06:12:08.240Z,123.50
2018-05-14T06:13:08.164Z,125.30
2018-05-14T06:15:01.552Z,121.80
2018-05-14T06:16:01.504Z,125.90
2018-05-14T06:17:55.585Z,130.80
2018-05-14T06:18:55.528Z,126.40
2018-05-14T06:20:48.725Z,122.30
2018-05-14T06:21:48.859Z,120.40
2018-05-14T06:23:42.132Z,121.10
2018-05-14T06:24:41.763Z,117.00
2018-05-14T06:26:35.965Z,124.00
2018-05-14T06:27:35.169Z,132.10
2018-05-14T06:29:28.392Z,119.20
2018-05-14T06:30:28.036Z,122.50
2018-05-14T06:32:21.731Z,128.10
2018-05-14T06:33:21.623Z,121.60
2018-05-14T06:35:15.026Z,126.70
2018-05-14T06:36:14.811Z,127.40
2018-05-14T06:38:07.909Z,129.60
2018-05-14T06:39:07.854Z,121.40
2018-05-14T06:41:01.009Z,131.00
2018-05-14T06:42:00.966Z,130.20
2018-05-14T06:43:54.192Z,125.20
2018-05-14T06:44:54.135Z,125.90
2018-05-14T06:46:47.579Z,129.50
2018-05-14T06:49:00.403Z,121.00
2018-05-14T06:50:00.435Z,121.80
2018-05-14T06:51:54.835Z,125.30
2018-05-14T06:52:54.814Z,124.10
2018-05-14T06:54:48.241Z,120.40
2018-05-14T06:55:47.808Z,120.00
2018-05-14T06:57:41.579Z,126.50
2018-05-14T06:58:41.515Z,120.60
2018-05-14T07:00:34.482Z,115.50
2018-05-14T07:01:34.359Z,121.10
2018-05-14T07:03:27.079Z,117.20
2018-05-14T07:04:27.217Z,120.80
2018-05-14T07:06:21.191Z,119.10
2018-05-14T07:07:20.609Z,117.00
2018-05-14T07:09:14.173Z,114.00
2018-05-14T07:10:14.029Z,111.90
2018-05-14T07:12:07.115Z,110.00
2018-05-14T07:13:07.418Z,109.20
2018-05-14T07:15:00.742Z,102.80
2018-05-14T07:16:00.427Z,105.20
2018-05-14T07:17:54.193Z,92.50
2018-05-14T07:18:53.827Z,89.40
2018-05-14T07:20:47.154Z,90.10
2018-05-14T07:21:46.952Z,91.30
2018-05-14T07:23:42.235Z,97.50
2018-05-14T07:24:40.375Z,93.40
2018-05-14T07:26:33.749Z,88.20
2018-05-14T07:27:33.438Z,87.00
2018-05-14T07:29:27.187Z,81.20
2018-05-14T07:30:27.187Z,86.90
2018-05-14T07:32:20.611Z,89.10
2018-05-14T07:33:20.681Z,87.20
2018-05-14T07:35:14.076Z,85.00
2018-05-14T07:36:14.100Z,78.70
2018-05-14T07:38:07.863Z,80.70
2018-05-14T07:39:07.990Z,80.00
2018-05-14T07:41:00.942Z,80.90
2018-05-14T07:42:00.481Z,79.60
2018-05-14T07:43:55.737Z,75.80
2018-05-14T07:44:54.772Z,79.70
2018-05-14T07:46:50.679Z,77.60
2018-05-14T07:47:51.042Z,77.90
2018-05-14T07:50:32.848Z,85.20
2018-05-14T07:51:32.302Z,81.00
2018-05-14T07:53:26.146Z,80.20
2018-05-14T07:54:26.155Z,79.70
2018-05-14T07:56:19.422Z,81.30
2018-05-14T07:57:19.501Z,86.10
2018-05-14T07:59:12.949Z,78.50
2018-05-14T08:00:12.881Z,82.00
2018-05-14T08:02:06.329Z,80.70
2018-05-14T08:03:06.221Z,88.40
2018-05-14T08:05:00.136Z,82.80
2018-05-14T08:05:59.325Z,82.80
2018-05-14T08:07:53.599Z,86.20
2018-05-14T08:08:53.240Z,89.30
2018-05-14T08:10:47.037Z,95.30
2018-05-14T08:11:47.005Z,88.90
2018-05-14T08:13:40.726Z,85.30
2018-05-14T08:14:40.818Z,89.60
2018-05-14T08:16:33.759Z,90.80
2018-05-14T08:17:35.782Z,91.90
2018-05-14T08:19:28.609Z,94.10
2018-05-14T08:20:27.357Z,88.10
2018-05-14T08:22:23.374Z,88.60
2018-05-14T08:23:20.831Z,89.90
2018-05-14T08:25:14.327Z,94.10
2018-05-14T08:26:13.665Z,90.00
2018-05-14T08:28:07.503Z,86.60
2018-05-14T08:29:06.917Z,87.00
2018-05-14T08:31:01.986Z,89.20
2018-05-14T08:32:02.979Z,91.20
2018-05-14T08:33:54.924Z,89.90
2018-05-14T08:34:54.589Z,91.40
2018-05-14T08:36:48.458Z,87.60
2018-05-14T08:37:48.255Z,87.00
2018-05-14T08:39:42.059Z,83.60
2018-05-14T08:40:42.836Z,80.20
2018-05-14T08:42:35.926Z,87.20
2018-05-14T08:43:35.620Z,84.20
2018-05-14T08:45:29.900Z,84.00
2018-05-14T08:46:29.404Z,84.70
2018-05-14T08:48:23.871Z,87.70
2018-05-14T08:49:24.871Z,81.40
2018-05-14T08:51:17.234Z,84.80
2018-05-14T08:52:16.690Z,81.50
2018-05-14T08:54:10.275Z,90.10
2018-05-14T08:55:11.113Z,86.00
2018-05-14T08:57:03.453Z,93.00
2018-05-14T08:58:03.105Z,91.80
2018-05-14T08:59:56.734Z,86.10
2018-05-14T09:00:57.956Z,85.80
2018-05-14T09:02:50.072Z,87.50
2018-05-14T09:03:50.048Z,83.90
2018-05-14T09:06:03.888Z,86.70
2018-05-14T09:08:19.162Z,86.90
2018-05-14T09:09:18.747Z,88.40
2018-05-14T09:11:12.500Z,86.30
2018-05-14T09:12:12.469Z,93.30
2018-05-14T09:14:06.628Z,91.80
2018-05-14T09:15:05.865Z,87.40
2018-05-14T09:16:59.404Z,92.70
2018-05-14T09:18:00.606Z,88.10
2018-05-14T09:19:51.945Z,86.00
2018-05-14T09:20:52.858Z,84.30
2018-05-14T09:22:45.304Z,86.00
2018-05-14T09:23:45.319Z,82.90
2018-05-14T09:25:39.378Z,84.30
2018-05-14T09:26:38.732Z,82.80
2018-05-14T09:28:32.756Z,79.20
2018-05-14T09:29:32.681Z,79.70
2018-05-14T09:31:31.241Z,77.40
2018-05-14T09:32:33.817Z,77.90
2018-05-14T09:34:24.950Z,86.00
2018-05-14T09:35:24.798Z,76.90
2018-05-14T09:37:17.821Z,77.10
2018-05-14T09:38:17.486Z,72.20
2018-05-14T09:40:10.643Z,76.80
2018-05-14T09:41:10.353Z,83.30
2018-05-14T09:43:04.009Z,79.90
2018-05-14T09:44:03.722Z,77.60
2018-05-14T09:45:57.368Z,80.70
2018-05-14T09:46:57.127Z,83.30
2018-05-14T09:48:50.784Z,79.40
2018-05-14T09:49:50.518Z,80.60
2018-05-14T09:51:43.545Z,82.30
2018-05-14T09:52:43.390Z,78.50
2018-05-14T09:54:36.602Z,80.10
2018-05-14T09:55:36.307Z,76.70
2018-05-14T09:57:29.187Z,76.70
2018-05-14T09:58:29.168Z,80.00
2018-05-14T10:00:22.071Z,75.90
2018-05-14T10:01:22.049Z,83.10
2018-05-14T10:03:14.955Z,78.80
2018-05-14T10:04:14.975Z,79.80
2018-05-14T10:06:08.345Z,80.80
2018-05-14T10:07:08.315Z,75.60
2018-05-14T10:09:01.770Z,75.40
2018-05-14T10:10:01.753Z,73.70
2018-05-14T10:11:55.724Z,80.80
2018-05-14T10:12:55.224Z,80.70
2018-05-14T10:14:48.080Z,81.50
2018-05-14T10:15:48.025Z,79.70
2018-05-14T10:17:41.445Z,78.60
2018-05-14T10:18:41.491Z,79.70
2018-05-14T10:20:34.827Z,78.60
2018-05-14T10:21:34.797Z,78.70
2018-05-14T10:23:27.705Z,74.40
2018-05-14T10:24:27.695Z,73.70
2018-05-14T10:26:20.591Z,77.80
2018-05-14T10:27:20.584Z,79.20
2018-05-14T10:29:13.481Z,74.10
2018-05-14T10:30:13.454Z,75.60
2018-05-14T10:32:06.397Z,77.30
2018-05-14T10:33:06.347Z,73.90
2018-05-14T10:34:59.253Z,72.70
2018-05-14T10:35:59.230Z,74.70
2018-05-14T10:37:52.161Z,76.50
2018-05-14T10:38:52.125Z,76.70
2018-05-14T10:40:45.042Z,79.10
2018-05-14T10:41:45.009Z,78.20
2018-05-14T10:43:37.919Z,77.50
2018-05-14T10:44:37.897Z,78.80
2018-05-14T10:46:30.803Z,78.10
2018-05-14T10:47:30.784Z,76.80
2018-05-14T10:49:23.687Z,74.90
2018-05-14T10:50:23.681Z,75.20
2018-05-14T10:52:17.068Z,81.20
2018-05-14T10:53:17.053Z,72.60
2018-05-14T10:55:10.062Z,74.50
2018-05-14T10:56:09.937Z,72.60
2018-05-14T10:58:02.845Z,74.50
2018-05-14T10:59:02.834Z,76.00
2018-05-14T11:00:56.227Z,71.70
2018-05-14T11:01:56.211Z,72.20
2018-05-14T11:03:49.206Z,73.40
2018-05-14T11:04:49.101Z,78.60
2018-05-14T11:06:42.702Z,74.20
2018-05-14T11:07:42.682Z,76.50
2018-05-14T11:09:35.625Z,76.60
2018-05-14T11:10:35.626Z,76.40
2018-05-14T11:12:28.672Z,74.40
2018-05-14T11:13:28.498Z,74.80
2018-05-14T11:15:21.423Z,79.60
2018-05-14T11:16:21.379Z,76.80
2018-05-14T11:18:14.309Z,73.20
2018-05-14T11:19:14.288Z,72.70
2018-05-14T11:21:07.198Z,76.20
2018-05-14T11:22:07.181Z,75.90
2018-05-14T11:24:00.106Z,74.60
2018-05-14T11:25:00.075Z,78.10
2018-05-14T11:26:52.990Z,80.10
2018-05-14T11:27:52.986Z,77.40
2018-05-14T11:29:45.871Z,77.90
2018-05-14T11:30:45.850Z,84.10
2018-05-14T11:32:38.755Z,79.80
2018-05-14T11:33:38.739Z,78.20
2018-05-14T11:35:32.261Z,79.80
2018-05-14T11:36:32.119Z,78.00
2018-05-14T11:38:25.622Z,78.40
2018-05-14T11:39:25.508Z,78.60
2018-05-14T11:41:18.549Z,77.80
2018-05-14T11:42:18.413Z,77.70
2018-05-14T11:44:11.313Z,77.50
2018-05-14T11:45:11.287Z,75.30
2018-05-14T11:47:04.247Z,75.50
2018-05-14T11:48:04.176Z,80.80
2018-05-14T11:49:57.197Z,74.70
2018-05-14T11:50:57.064Z,72.70
2018-05-14T11:52:50.149Z,77.80
2018-05-14T11:53:49.951Z,76.30
2018-05-14T11:55:42.859Z,75.60
2018-05-14T11:56:42.886Z,79.00
2018-05-14T11:58:36.815Z,81.70
2018-05-14T11:59:36.222Z,76.90
2018-05-14T12:01:29.630Z,78.90
2018-05-14T12:02:29.597Z,79.70
2018-05-14T12:04:22.524Z,77.40
2018-05-14T12:05:22.504Z,77.50
2018-05-14T12:07:15.963Z,73.70
2018-05-14T12:08:15.374Z,76.10
2018-05-14T12:10:08.340Z,80.90
2018-05-14T12:11:08.257Z,73.20
2018-05-14T12:13:01.796Z,81.00
2018-05-14T12:14:01.649Z,81.80
2018-05-14T12:15:55.061Z,80.30
2018-05-14T12:16:55.015Z,76.90
2018-05-14T12:18:47.931Z,79.60
2018-05-14T12:19:47.907Z,80.30
2018-05-14T12:21:40.820Z,80.70
2018-05-14T12:22:40.802Z,81.40
2018-05-14T12:24:33.792Z,81.80
2018-05-14T12:25:33.687Z,83.60
2018-05-14T12:27:26.726Z,91.60
2018-05-14T12:28:26.576Z,92.40
2018-05-14T12:30:20.093Z,87.60
2018-05-14T12:31:19.953Z,87.00
2018-05-14T12:33:12.864Z,86.00
2018-05-14T12:34:12.836Z,89.20
2018-05-14T12:36:05.748Z,87.30
2018-05-14T12:37:05.725Z,90.70
2018-05-14T12:38:58.630Z,90.00
2018-05-14T12:39:58.626Z,95.90
2018-05-14T12:41:51.578Z,93.90
2018-05-14T12:42:51.497Z,91.40
2018-05-14T12:44:44.421Z,93.30
2018-05-14T12:45:44.389Z,90.10
2018-05-14T12:47:37.859Z,94.50
2018-05-14T12:48:37.273Z,95.00
2018-05-14T12:50:30.692Z,97.10
2018-05-14T12:51:30.664Z,91.70
2018-05-14T12:53:23.565Z,96.00
2018-05-14T12:54:23.553Z,97.10
2018-05-14T12:56:16.458Z,103.50
2018-05-14T12:57:16.464Z,106.00
2018-05-14T12:59:09.337Z,100.90
2018-05-14T13:00:09.362Z,104.10
2018-05-14T13:02:02.292Z,98.80
2018-05-14T13:03:02.203Z,98.10
2018-05-14T13:04:55.125Z,100.70
2018-05-14T13:05:55.090Z,104.50
2018-05-14T13:07:48.004Z,103.00
2018-05-14T13:08:47.979Z,100.60
2018-05-14T13:10:40.900Z,100.90
2018-05-14T13:11:40.862Z,102.00
2018-05-14T13:13:33.775Z,105.40
2018-05-14T13:14:33.759Z,102.40
2018-05-14T13:16:27.249Z,102.20
2018-05-14T13:17:27.136Z,104.60
2018-05-14T13:19:20.141Z,104.20
2018-05-14T13:20:20.011Z,107.50
2018-05-14T13:22:12.992Z,106.00
2018-05-14T13:23:12.894Z,108.60
2018-05-14T13:25:05.922Z,104.90
2018-05-14T13:26:05.780Z,109.20
2018-05-14T13:27:58.686Z,105.70
2018-05-14T13:28:58.670Z,105.30
2018-05-14T13:30:51.567Z,106.20
2018-05-14T13:31:51.551Z,107.40
2018-05-14T13:33:44.462Z,101.50
2018-05-14T13:34:44.457Z,105.10
2018-05-14T13:36:37.349Z,100.50
2018-05-14T13:37:37.359Z,103.30
2018-05-14T13:39:30.236Z,100.20
2018-05-14T13:40:30.212Z,97.20
2018-05-14T13:42:23.195Z,100.40
2018-05-14T13:43:23.100Z,98.20
2018-05-14T13:45:16.006Z,98.20
2018-05-14T13:46:15.984Z,101.10
2018-05-14T13:48:08.921Z,90.50
2018-05-14T13:49:08.865Z,93.10
2018-05-14T13:51:02.282Z,88.10
2018-05-14T13:52:02.248Z,86.10
2018-05-14T13:53:55.151Z,81.10
2018-05-14T13:54:55.130Z,76.40
2018-05-14T13:56:48.035Z,77.90
2018-05-14T13:57:48.015Z,81.70
2018-05-14T13:59:41.422Z,75.70
2018-05-14T14:00:41.421Z,77.70
2018-05-14T14:02:34.338Z,75.50
2018-05-14T14:03:34.277Z,76.30
2018-05-14T14:05:27.340Z,85.40
2018-05-14T14:06:27.167Z,85.90
2018-05-14T14:08:20.101Z,93.50
2018-05-14T14:09:20.070Z,89.40
2018-05-14T14:11:12.979Z,88.20
2018-05-14T14:12:12.944Z,90.20
2018-05-14T14:14:05.846Z,89.80
2018-05-14T14:15:05.822Z,90.50
2018-05-14T14:16:58.803Z,88.40
2018-05-14T14:17:58.725Z,84.50
2018-05-14T14:19:52.707Z,80.20
2018-05-14T14:20:52.095Z,82.80
2018-05-14T14:22:45.011Z,79.00
2018-05-14T14:23:45.182Z,72.50
2018-05-14T14:25:38.381Z,73.20
2018-05-14T14:26:38.360Z,74.10
2018-05-14T14:28:31.367Z,68.40
2018-05-14T14:29:31.258Z,65.40
2018-05-14T14:31:24.275Z,57.30
2018-05-14T14:32:24.141Z,51.30
2018-05-14T14:34:17.611Z,38.80
2018-05-14T14:35:17.030Z,34.80
2018-05-14T14:37:09.986Z,25.00
2018-05-14T14:38:09.917Z,26.40
2018-05-14T14:40:02.868Z,24.00
2018-05-14T14:41:02.798Z,22.10
2018-05-14T14:42:56.200Z,24.00
2018-05-14T14:43:56.178Z,19.60
2018-05-14T14:45:49.608Z,23.00
2018-05-14T14:46:49.573Z,20.40
2018-05-14T14:48:42.474Z,22.60
2018-05-14T14:49:42.473Z,19.10
2018-05-14T14:51:35.431Z,18.70
2018-05-14T14:52:35.362Z,20.10
2018-05-14T14:54:28.273Z,21.70
2018-05-14T14:55:28.250Z,21.00
2018-05-14T14:57:21.702Z,21.20
2018-05-14T14:58:21.683Z,20.70
2018-05-14T15:00:14.550Z,20.50
2018-05-14T15:01:14.537Z,17.80
2018-05-14T15:03:07.444Z,15.30
2018-05-14T15:04:07.425Z,16.60
2018-05-14T15:06:00.329Z,15.50
2018-05-14T15:07:00.330Z,16.80
2018-05-14T15:08:53.226Z,18.00
2018-05-14T15:09:53.218Z,13.90
2018-05-14T15:11:46.110Z,14.70
2018-05-14T15:12:46.079Z,15.10
2018-05-14T15:14:39.602Z,16.50
2018-05-14T15:15:39.466Z,14.70
2018-05-14T15:17:32.968Z,16.50
2018-05-14T15:18:32.884Z,17.60
2018-05-14T15:20:25.816Z,17.00
2018-05-14T15:21:25.777Z,19.40
2018-05-14T15:23:18.823Z,13.10
2018-05-14T15:24:18.702Z,16.50
2018-05-14T15:26:11.612Z,12.60
2018-05-14T15:27:11.616Z,13.50
2018-05-14T15:29:57.502Z,12.60
2018-05-14T15:30:56.176Z,12.20
2018-05-14T15:32:48.606Z,19.80
2018-05-14T15:33:48.704Z,18.50
2018-05-14T15:35:42.147Z,11.60
2018-05-14T15:36:41.976Z,13.10
2018-05-14T15:38:34.915Z,19.40
2018-05-14T15:39:34.870Z,14.90
2018-05-14T15:41:28.067Z,15.10
2018-05-14T15:42:27.789Z,16.80
2018-05-14T15:44:20.968Z,14.50
2018-05-14T15:45:20.651Z,13.60
2018-05-14T15:47:14.054Z,13.10
2018-05-14T15:48:14.043Z,11.90
2018-05-14T15:50:07.185Z,13.80
2018-05-14T15:51:07.190Z,9.80
2018-05-14T15:53:00.158Z,12.80
2018-05-14T15:54:00.147Z,16.30
2018-05-14T15:55:53.583Z,9.00
2018-05-14T15:56:52.752Z,12.30
2018-05-14T15:58:45.652Z,11.40
2018-05-14T15:59:45.631Z,12.10
2018-05-14T16:01:38.543Z,11.80
2018-05-14T16:02:39.083Z,14.50
2018-05-14T16:04:31.698Z,8.60
2018-05-14T16:05:31.410Z,10.20
2018-05-14T16:07:25.019Z,9.80
2018-05-14T16:08:24.789Z,9.70
2018-05-14T16:10:17.717Z,10.00
2018-05-14T16:11:17.707Z,10.20
2018-05-14T16:13:10.605Z,8.60
2018-05-14T16:14:10.583Z,9.20
2018-05-14T16:16:03.495Z,10.60
2018-05-14T16:17:04.538Z,8.20
2018-05-14T16:18:56.880Z,6.20
2018-05-14T16:19:56.859Z,7.50
2018-05-14T16:21:50.271Z,8.10
2018-05-14T16:22:50.241Z,8.20
2018-05-14T16:24:43.150Z,7.20
2018-05-14T16:25:43.125Z,6.90
2018-05-14T16:27:36.553Z,7.80
2018-05-14T16:28:36.515Z,8.10
2018-05-14T16:30:29.447Z,6.70
2018-05-14T16:31:29.410Z,6.00
2018-05-14T16:33:22.381Z,6.10
2018-05-14T16:34:22.305Z,8.90
2018-05-14T16:36:16.385Z,7.50
2018-05-14T16:37:16.155Z,8.80
2018-05-14T16:39:09.723Z,6.50
2018-05-14T16:40:09.542Z,8.90
2018-05-14T16:42:03.119Z,7.50
2018-05-14T16:43:02.916Z,10.20
2018-05-14T16:44:55.892Z,6.40
2018-05-14T16:45:55.798Z,7.90
2018-05-14T16:47:49.288Z,6.40
2018-05-14T16:48:48.707Z,8.10
2018-05-14T16:50:41.621Z,8.30
2018-05-14T16:51:41.586Z,9.60
2018-05-14T16:53:34.738Z,6.90
2018-05-14T16:54:34.464Z,10.90
2018-05-14T16:56:27.905Z,8.20
2018-05-14T16:57:27.854Z,6.90
2018-05-14T16:59:20.855Z,9.40
2018-05-14T17:00:20.841Z,7.30
2018-05-14T17:02:14.266Z,9.10
2018-05-14T17:03:13.790Z,8.50
2018-05-14T17:05:07.430Z,10.20
2018-05-14T17:06:07.190Z,7.20
2018-05-14T17:08:01.334Z,6.70
2018-05-14T17:09:00.616Z,8.90
2018-05-14T17:10:53.489Z,7.70
2018-05-14T17:11:53.468Z,8.90
2018-05-14T17:13:46.372Z,6.70
2018-05-14T17:14:46.471Z,7.80
2018-05-14T17:17:30.410Z,7.20
2018-05-14T17:18:30.388Z,8.60
2018-05-14T17:20:23.482Z,9.60
2018-05-14T17:21:23.300Z,8.00
2018-05-14T17:23:17.071Z,10.60
2018-05-14T17:24:16.166Z,12.00
2018-05-14T17:26:09.349Z,7.00
2018-05-14T17:27:09.068Z,8.60
2018-05-14T17:29:01.968Z,9.80
2018-05-14T17:30:02.036Z,8.60
2018-05-14T17:31:55.357Z,10.20
2018-05-14T17:32:55.326Z,9.60
2018-05-14T17:34:49.315Z,11.70
2018-05-14T17:35:48.704Z,10.70
2018-05-14T17:37:42.725Z,7.90
2018-05-14T17:38:41.677Z,7.40
2018-05-14T17:40:34.571Z,7.70
2018-05-14T17:41:34.539Z,9.20
2018-05-14T17:43:27.941Z,9.30
2018-05-14T17:44:27.921Z,12.20
2018-05-14T17:46:21.130Z,8.10
2018-05-14T17:47:20.802Z,8.20
2018-05-14T17:49:13.866Z,6.80
2018-05-14T17:50:13.694Z,10.20
2018-05-14T17:52:07.091Z,7.90
2018-05-14T17:53:07.067Z,9.30
2018-05-14T17:55:00.213Z,8.80
2018-05-14T17:55:59.942Z,12.10
2018-05-14T17:57:52.878Z,10.90
2018-05-14T17:58:52.837Z,8.50
2018-05-14T18:00:46.288Z,10.50
2018-05-14T18:01:46.229Z,10.10
2018-05-14T18:03:39.128Z,9.70
2018-05-14T18:04:39.109Z,11.40
2018-05-14T18:06:32.529Z,9.40
2018-05-14T18:07:32.489Z,8.60
2018-05-14T18:09:25.409Z,7.90
2018-05-14T18:10:25.475Z,8.60
2018-05-14T18:12:19.035Z,14.10
2018-05-14T18:13:18.764Z,13.20
2018-05-14T18:15:11.672Z,13.30
2018-05-14T18:16:11.646Z,8.60
2018-05-14T18:18:04.562Z,11.60
2018-05-14T18:19:04.542Z,10.20
2018-05-14T18:20:57.439Z,7.00
2018-05-14T18:21:57.419Z,13.80
2018-05-14T18:23:50.895Z,14.30
2018-05-14T18:24:50.807Z,15.50
2018-05-14T18:26:43.720Z,9.50
2018-05-14T18:27:43.688Z,8.20